sensor_id;sensor_type;location;lat;lon;timestamp;temperature;humidity
2647;DHT22;1333;50.958;6.770;2023-12-20T00:02:10;8.70;99.90
2647;DHT22;1333;50.958;6.770;2023-12-20T00:04:36;8.70;99.90
2647;DHT22;1333;50.958;6.770;2023-12-20T00:07:01;8.70;99.90
2647;DHT22;1333;50.958;6.770;2023-12-20T00:09:27;8.70;99.90
2647;DHT22;1333;50.958;6.770;2023-12-20T00:11:53;8.70;99.90
2647;DHT22;1333;50.958;6.770;2023-12-20T00:14:18;8.80;99.90
2647;DHT22;1333;50.958;6.770;2023-12-20T00:16:44;8.80;99.90
2647;DHT22;1333;50.958;6.770;2023-12-20T00:19:09;8.80;99.90
2647;DHT22;1333;50.958;6.770;2023-12-20T00:21:35;8.90;99.90
2647;DHT22;1333;50.958;6.770;2023-12-20T00:24:00;8.90;99.90
2647;DHT22;1333;50.958;6.770;2023-12-20T00:26:26;9.00;99.90
2647;DHT22;1333;50.958;6.770;2023-12-20T00:28:53;8.90;99.90
2647;DHT22;1333;50.958;6.770;2023-12-20T00:31:18;8.90;99.90
2647;DHT22;1333;50.958;6.770;2023-12-20T00:33:44;8.90;99.90
2647;DHT22;1333;50.958;6.770;2023-12-20T00:36:11;8.90;99.90
2647;DHT22;1333;50.958;6.770;2023-12-20T00:38:37;8.90;99.90
2647;DHT22;1333;50.958;6.770;2023-12-20T00:41:02;8.90;99.90
2647;DHT22;1333;50.958;6.770;2023-12-20T00:43:28;8.80;99.90
2647;DHT22;1333;50.958;6.770;2023-12-20T00:45:53;8.80;99.90
2647;DHT22;1333;50.958;6.770;2023-12-20T00:48:19;8.80;99.90
2647;DHT22;1333;50.958;6.770;2023-12-20T00:50:44;8.70;99.90
2647;DHT22;1333;50.958;6.770;2023-12-20T00:53:10;8.70;99.90
2647;DHT22;1333;50.958;6.770;2023-12-20T00:55:35;8.80;99.90
2647;DHT22;1333;50.958;6.770;2023-12-20T00:58:01;8.80;99.90
2647;DHT22;1333;50.958;6.770;2023-12-20T01:00:26;8.70;99.90
2647;DHT22;1333;50.958;6.770;2023-12-20T01:02:52;8.70;99.90
2647;DHT22;1333;50.958;6.770;2023-12-20T01:05:18;8.70;99.90
2647;DHT22;1333;50.958;6.770;2023-12-20T01:07:44;8.60;99.90
2647;DHT22;1333;50.958;6.770;2023-12-20T01:10:10;8.40;99.90
2647;DHT22;1333;50.958;6.770;2023-12-20T01:12:36;8.30;99.90
2647;DHT22;1333;50.958;6.770;2023-12-20T01:15:01;8.20;99.90
2647;DHT22;1333;50.958;6.770;2023-12-20T01:17:27;8.10;99.90
2647;DHT22;1333;50.958;6.770;2023-12-20T01:19:52;8.00;99.90
2647;DHT22;1333;50.958;6.770;2023-12-20T01:22:18;8.10;99.90
2647;DHT22;1333;50.958;6.770;2023-12-20T01:24:44;8.10;99.90
2647;DHT22;1333;50.958;6.770;2023-12-20T01:27:09;8.20;99.90
2647;DHT22;1333;50.958;6.770;2023-12-20T01:29:35;8.30;99.90
2647;DHT22;1333;50.958;6.770;2023-12-20T01:32:00;8.30;99.90
2647;DHT22;1333;50.958;6.770;2023-12-20T01:34:26;8.40;99.90
2647;DHT22;1333;50.958;6.770;2023-12-20T01:36:52;8.40;99.90
2647;DHT22;1333;50.958;6.770;2023-12-20T01:39:17;8.30;99.90
2647;DHT22;1333;50.958;6.770;2023-12-20T01:41:43;8.20;99.90
2647;DHT22;1333;50.958;6.770;2023-12-20T01:44:08;8.10;99.90
2647;DHT22;1333;50.958;6.770;2023-12-20T01:46:34;8.10;99.90
2647;DHT22;1333;50.958;6.770;2023-12-20T01:49:00;8.10;99.90
2647;DHT22;1333;50.958;6.770;2023-12-20T01:51:26;8.00;99.90
2647;DHT22;1333;50.958;6.770;2023-12-20T01:53:53;8.00;99.90
2647;DHT22;1333;50.958;6.770;2023-12-20T01:56:20;7.90;99.90
2647;DHT22;1333;50.958;6.770;2023-12-20T01:58:46;7.80;99.90
2647;DHT22;1333;50.958;6.770;2023-12-20T02:01:12;7.70;99.90
2647;DHT22;1333;50.958;6.770;2023-12-20T02:03:40;7.60;99.90
2647;DHT22;1333;50.958;6.770;2023-12-20T02:06:07;7.50;99.90
2647;DHT22;1333;50.958;6.770;2023-12-20T02:08:34;7.40;99.90
2647;DHT22;1333;50.958;6.770;2023-12-20T02:11:00;7.30;99.90
2647;DHT22;1333;50.958;6.770;2023-12-20T02:13:25;7.20;99.90
2647;DHT22;1333;50.958;6.770;2023-12-20T02:15:52;7.00;99.90
2647;DHT22;1333;50.958;6.770;2023-12-20T02:18:17;6.90;99.90
2647;DHT22;1333;50.958;6.770;2023-12-20T02:20:43;6.80;99.90
2647;DHT22;1333;50.958;6.770;2023-12-20T02:23:09;6.80;99.90
2647;DHT22;1333;50.958;6.770;2023-12-20T02:25:34;6.70;99.90
2647;DHT22;1333;50.958;6.770;2023-12-20T02:28:00;6.60;99.90
2647;DHT22;1333;50.958;6.770;2023-12-20T02:30:26;6.60;99.90
2647;DHT22;1333;50.958;6.770;2023-12-20T02:32:52;6.60;99.90
2647;DHT22;1333;50.958;6.770;2023-12-20T02:35:18;6.50;99.90
2647;DHT22;1333;50.958;6.770;2023-12-20T02:37:44;6.40;99.90
2647;DHT22;1333;50.958;6.770;2023-12-20T02:40:09;6.40;99.90
2647;DHT22;1333;50.958;6.770;2023-12-20T02:42:35;6.40;99.90
2647;DHT22;1333;50.958;6.770;2023-12-20T02:45:01;6.40;99.90
2647;DHT22;1333;50.958;6.770;2023-12-20T02:47:27;6.40;99.90
2647;DHT22;1333;50.958;6.770;2023-12-20T02:49:52;6.50;99.90
2647;DHT22;1333;50.958;6.770;2023-12-20T02:52:18;6.60;99.90
2647;DHT22;1333;50.958;6.770;2023-12-20T02:54:43;6.70;99.90
2647;DHT22;1333;50.958;6.770;2023-12-20T02:57:09;6.80;99.90
2647;DHT22;1333;50.958;6.770;2023-12-20T02:59:34;6.80;99.90
2647;DHT22;1333;50.958;6.770;2023-12-20T03:02:00;6.90;99.90
2647;DHT22;1333;50.958;6.770;2023-12-20T03:04:26;6.90;99.90
2647;DHT22;1333;50.958;6.770;2023-12-20T03:06:51;7.00;99.90
2647;DHT22;1333;50.958;6.770;2023-12-20T03:09:17;7.00;99.90
2647;DHT22;1333;50.958;6.770;2023-12-20T03:11:42;7.00;99.90
2647;DHT22;1333;50.958;6.770;2023-12-20T03:14:08;7.10;99.90
2647;DHT22;1333;50.958;6.770;2023-12-20T03:16:33;7.10;99.90
2647;DHT22;1333;50.958;6.770;2023-12-20T03:18:59;7.20;99.90
2647;DHT22;1333;50.958;6.770;2023-12-20T03:21:24;7.20;99.90
2647;DHT22;1333;50.958;6.770;2023-12-20T03:23:50;7.20;99.90
2647;DHT22;1333;50.958;6.770;2023-12-20T03:26:16;7.30;99.90
2647;DHT22;1333;50.958;6.770;2023-12-20T03:28:41;7.30;99.90
2647;DHT22;1333;50.958;6.770;2023-12-20T03:31:07;7.30;99.90
2647;DHT22;1333;50.958;6.770;2023-12-20T03:33:34;7.30;99.90
2647;DHT22;1333;50.958;6.770;2023-12-20T03:36:00;7.40;99.90
2647;DHT22;1333;50.958;6.770;2023-12-20T03:38:25;7.30;99.90
2647;DHT22;1333;50.958;6.770;2023-12-20T03:40:51;7.10;99.90
2647;DHT22;1333;50.958;6.770;2023-12-20T03:43:16;7.10;99.90
2647;DHT22;1333;50.958;6.770;2023-12-20T03:45:42;7.10;99.90
2647;DHT22;1333;50.958;6.770;2023-12-20T03:48:08;7.10;99.90
2647;DHT22;1333;50.958;6.770;2023-12-20T03:50:34;7.00;99.90
2647;DHT22;1333;50.958;6.770;2023-12-20T03:53:00;7.10;99.90
2647;DHT22;1333;50.958;6.770;2023-12-20T03:55:26;7.10;99.90
2647;DHT22;1333;50.958;6.770;2023-12-20T03:57:51;7.20;99.90
2647;DHT22;1333;50.958;6.770;2023-12-20T04:00:17;7.20;99.90
2647;DHT22;1333;50.958;6.770;2023-12-20T04:02:42;7.20;99.90
2647;DHT22;1333;50.958;6.770;2023-12-20T04:05:09;7.20;99.90
2647;DHT22;1333;50.958;6.770;2023-12-20T04:07:35;7.10;99.90
2647;DHT22;1333;50.958;6.770;2023-12-20T04:10:01;7.10;99.90
2647;DHT22;1333;50.958;6.770;2023-12-20T04:12:28;7.10;99.90
2647;DHT22;1333;50.958;6.770;2023-12-20T04:14:53;7.10;99.90
2647;DHT22;1333;50.958;6.770;2023-12-20T04:17:20;7.00;99.90
2647;DHT22;1333;50.958;6.770;2023-12-20T04:19:45;6.90;99.90
2647;DHT22;1333;50.958;6.770;2023-12-20T04:22:11;6.90;99.90
2647;DHT22;1333;50.958;6.770;2023-12-20T04:24:36;6.80;99.90
2647;DHT22;1333;50.958;6.770;2023-12-20T04:27:02;6.80;99.90
2647;DHT22;1333;50.958;6.770;2023-12-20T04:29:28;6.80;99.90
2647;DHT22;1333;50.958;6.770;2023-12-20T04:31:53;6.70;99.90
2647;DHT22;1333;50.958;6.770;2023-12-20T04:34:19;6.60;99.90
2647;DHT22;1333;50.958;6.770;2023-12-20T04:36:45;6.60;99.90
2647;DHT22;1333;50.958;6.770;2023-12-20T04:39:14;6.50;99.90
2647;DHT22;1333;50.958;6.770;2023-12-20T04:41:42;6.50;99.90
2647;DHT22;1333;50.958;6.770;2023-12-20T04:44:08;6.40;99.90
2647;DHT22;1333;50.958;6.770;2023-12-20T04:46:33;6.30;99.90
2647;DHT22;1333;50.958;6.770;2023-12-20T04:48:58;6.30;99.90
2647;DHT22;1333;50.958;6.770;2023-12-20T04:51:24;6.30;99.90
2647;DHT22;1333;50.958;6.770;2023-12-20T04:53:50;6.30;99.90
2647;DHT22;1333;50.958;6.770;2023-12-20T04:56:15;6.20;99.90
2647;DHT22;1333;50.958;6.770;2023-12-20T04:58:42;6.20;99.90
2647;DHT22;1333;50.958;6.770;2023-12-20T05:01:08;6.10;99.90
2647;DHT22;1333;50.958;6.770;2023-12-20T05:03:34;6.10;99.90
2647;DHT22;1333;50.958;6.770;2023-12-20T05:06:00;6.10;99.90
2647;DHT22;1333;50.958;6.770;2023-12-20T05:08:25;6.10;99.90
2647;DHT22;1333;50.958;6.770;2023-12-20T05:10:53;6.10;99.90
2647;DHT22;1333;50.958;6.770;2023-12-20T05:13:19;6.00;99.90
2647;DHT22;1333;50.958;6.770;2023-12-20T05:15:44;6.00;99.90
2647;DHT22;1333;50.958;6.770;2023-12-20T05:18:10;6.00;99.90
2647;DHT22;1333;50.958;6.770;2023-12-20T05:20:35;6.00;99.90
2647;DHT22;1333;50.958;6.770;2023-12-20T05:23:01;6.10;99.90
2647;DHT22;1333;50.958;6.770;2023-12-20T05:25:26;6.10;99.90
2647;DHT22;1333;50.958;6.770;2023-12-20T05:27:52;6.00;99.90
2647;DHT22;1333;50.958;6.770;2023-12-20T05:30:18;6.10;99.90
2647;DHT22;1333;50.958;6.770;2023-12-20T05:32:43;6.10;99.90
2647;DHT22;1333;50.958;6.770;2023-12-20T05:35:09;6.00;99.90
2647;DHT22;1333;50.958;6.770;2023-12-20T05:37:34;6.10;99.90
2647;DHT22;1333;50.958;6.770;2023-12-20T05:40:00;6.10;99.90
2647;DHT22;1333;50.958;6.770;2023-12-20T05:42:25;6.20;99.90
2647;DHT22;1333;50.958;6.770;2023-12-20T05:44:51;6.20;99.90
2647;DHT22;1333;50.958;6.770;2023-12-20T05:47:16;6.20;99.90
2647;DHT22;1333;50.958;6.770;2023-12-20T05:49:43;6.30;99.90
2647;DHT22;1333;50.958;6.770;2023-12-20T05:52:09;6.40;99.90
2647;DHT22;1333;50.958;6.770;2023-12-20T05:54:34;6.40;99.90
2647;DHT22;1333;50.958;6.770;2023-12-20T05:57:00;6.50;99.90
2647;DHT22;1333;50.958;6.770;2023-12-20T05:59:26;6.40;99.90
2647;DHT22;1333;50.958;6.770;2023-12-20T06:01:51;6.40;99.90
2647;DHT22;1333;50.958;6.770;2023-12-20T06:04:17;6.40;99.90
2647;DHT22;1333;50.958;6.770;2023-12-20T06:06:42;6.50;99.90
2647;DHT22;1333;50.958;6.770;2023-12-20T06:09:08;6.50;99.90
2647;DHT22;1333;50.958;6.770;2023-12-20T06:11:34;6.60;99.90
2647;DHT22;1333;50.958;6.770;2023-12-20T06:13:59;6.70;99.90
2647;DHT22;1333;50.958;6.770;2023-12-20T06:16:25;6.70;99.90
2647;DHT22;1333;50.958;6.770;2023-12-20T06:18:50;6.70;99.90
2647;DHT22;1333;50.958;6.770;2023-12-20T06:21:16;6.70;99.90
2647;DHT22;1333;50.958;6.770;2023-12-20T06:23:41;6.80;99.90
2647;DHT22;1333;50.958;6.770;2023-12-20T06:26:07;6.80;99.90
2647;DHT22;1333;50.958;6.770;2023-12-20T06:28:32;6.90;99.90
2647;DHT22;1333;50.958;6.770;2023-12-20T06:30:58;6.90;99.90
2647;DHT22;1333;50.958;6.770;2023-12-20T06:33:24;7.00;99.90
2647;DHT22;1333;50.958;6.770;2023-12-20T06:35:50;7.00;99.90
2647;DHT22;1333;50.958;6.770;2023-12-20T06:38:17;7.10;99.90
2647;DHT22;1333;50.958;6.770;2023-12-20T06:40:42;7.00;99.90
2647;DHT22;1333;50.958;6.770;2023-12-20T06:43:08;7.00;99.90
2647;DHT22;1333;50.958;6.770;2023-12-20T06:45:33;7.00;99.90
2647;DHT22;1333;50.958;6.770;2023-12-20T06:47:59;7.10;99.90
2647;DHT22;1333;50.958;6.770;2023-12-20T06:50:25;7.10;99.90
2647;DHT22;1333;50.958;6.770;2023-12-20T06:52:50;7.10;99.90
2647;DHT22;1333;50.958;6.770;2023-12-20T06:55:17;7.10;99.90
2647;DHT22;1333;50.958;6.770;2023-12-20T06:57:42;7.20;99.90
2647;DHT22;1333;50.958;6.770;2023-12-20T07:00:08;7.10;99.90
2647;DHT22;1333;50.958;6.770;2023-12-20T07:02:36;7.10;99.90
2647;DHT22;1333;50.958;6.770;2023-12-20T07:05:01;7.20;99.90
2647;DHT22;1333;50.958;6.770;2023-12-20T07:07:27;7.30;99.90
2647;DHT22;1333;50.958;6.770;2023-12-20T07:09:52;7.10;99.90
2647;DHT22;1333;50.958;6.770;2023-12-20T07:12:18;7.10;99.90
2647;DHT22;1333;50.958;6.770;2023-12-20T07:14:46;7.20;99.90
2647;DHT22;1333;50.958;6.770;2023-12-20T07:17:12;7.30;99.90
2647;DHT22;1333;50.958;6.770;2023-12-20T07:19:39;7.20;99.90
2647;DHT22;1333;50.958;6.770;2023-12-20T07:22:06;7.20;99.90
2647;DHT22;1333;50.958;6.770;2023-12-20T07:24:32;7.10;99.90
2647;DHT22;1333;50.958;6.770;2023-12-20T07:26:59;7.10;99.90
2647;DHT22;1333;50.958;6.770;2023-12-20T07:29:24;7.00;99.90
2647;DHT22;1333;50.958;6.770;2023-12-20T07:31:50;7.10;99.90
2647;DHT22;1333;50.958;6.770;2023-12-20T07:34:17;7.10;99.90
2647;DHT22;1333;50.958;6.770;2023-12-20T07:36:43;7.10;99.90
2647;DHT22;1333;50.958;6.770;2023-12-20T07:39:08;7.10;99.90
2647;DHT22;1333;50.958;6.770;2023-12-20T07:41:34;7.20;99.90
2647;DHT22;1333;50.958;6.770;2023-12-20T07:43:59;7.10;99.90
2647;DHT22;1333;50.958;6.770;2023-12-20T07:46:25;7.20;99.90
2647;DHT22;1333;50.958;6.770;2023-12-20T07:48:51;7.20;99.90
2647;DHT22;1333;50.958;6.770;2023-12-20T07:51:16;7.20;99.90
2647;DHT22;1333;50.958;6.770;2023-12-20T07:53:42;7.20;99.90
2647;DHT22;1333;50.958;6.770;2023-12-20T07:56:17;7.20;99.90
2647;DHT22;1333;50.958;6.770;2023-12-20T07:58:43;7.20;99.90
2647;DHT22;1333;50.958;6.770;2023-12-20T08:01:09;7.20;99.90
2647;DHT22;1333;50.958;6.770;2023-12-20T08:03:35;7.20;99.90
2647;DHT22;1333;50.958;6.770;2023-12-20T08:06:00;7.20;99.90
2647;DHT22;1333;50.958;6.770;2023-12-20T08:08:26;7.20;99.90
2647;DHT22;1333;50.958;6.770;2023-12-20T08:10:51;7.20;99.90
2647;DHT22;1333;50.958;6.770;2023-12-20T08:13:17;7.10;99.90
2647;DHT22;1333;50.958;6.770;2023-12-20T08:15:42;7.10;99.90
2647;DHT22;1333;50.958;6.770;2023-12-20T08:18:08;7.10;99.90
2647;DHT22;1333;50.958;6.770;2023-12-20T08:20:33;7.20;99.90
2647;DHT22;1333;50.958;6.770;2023-12-20T08:22:59;7.20;99.90
2647;DHT22;1333;50.958;6.770;2023-12-20T08:25:24;7.40;99.90
2647;DHT22;1333;50.958;6.770;2023-12-20T08:27:50;7.70;99.90
2647;DHT22;1333;50.958;6.770;2023-12-20T08:30:15;8.00;99.90
2647;DHT22;1333;50.958;6.770;2023-12-20T08:32:45;8.20;99.90
2647;DHT22;1333;50.958;6.770;2023-12-20T08:35:11;8.20;99.90
2647;DHT22;1333;50.958;6.770;2023-12-20T08:37:37;8.10;99.90
2647;DHT22;1333;50.958;6.770;2023-12-20T08:40:02;7.90;99.90
2647;DHT22;1333;50.958;6.770;2023-12-20T08:42:28;7.90;99.90
2647;DHT22;1333;50.958;6.770;2023-12-20T08:44:57;7.90;99.90
2647;DHT22;1333;50.958;6.770;2023-12-20T08:47:24;8.00;99.90
2647;DHT22;1333;50.958;6.770;2023-12-20T08:49:49;8.10;99.90
2647;DHT22;1333;50.958;6.770;2023-12-20T08:52:15;8.40;99.90
2647;DHT22;1333;50.958;6.770;2023-12-20T08:54:40;9.00;99.90
2647;DHT22;1333;50.958;6.770;2023-12-20T08:57:06;9.10;99.90
2647;DHT22;1333;50.958;6.770;2023-12-20T08:59:32;9.10;99.90
2647;DHT22;1333;50.958;6.770;2023-12-20T09:01:58;9.10;99.90
2647;DHT22;1333;50.958;6.770;2023-12-20T09:04:23;9.10;99.90
2647;DHT22;1333;50.958;6.770;2023-12-20T09:06:49;9.30;99.90
2647;DHT22;1333;50.958;6.770;2023-12-20T09:09:14;9.40;99.90
2647;DHT22;1333;50.958;6.770;2023-12-20T09:11:40;9.40;99.90
2647;DHT22;1333;50.958;6.770;2023-12-20T09:14:06;9.10;99.90
2647;DHT22;1333;50.958;6.770;2023-12-20T09:16:31;9.00;99.90
2647;DHT22;1333;50.958;6.770;2023-12-20T09:18:57;8.90;99.90
2647;DHT22;1333;50.958;6.770;2023-12-20T09:21:23;8.70;99.90
2647;DHT22;1333;50.958;6.770;2023-12-20T09:23:49;8.50;99.90
2647;DHT22;1333;50.958;6.770;2023-12-20T09:26:14;8.50;99.90
2647;DHT22;1333;50.958;6.770;2023-12-20T09:28:40;8.30;99.90
2647;DHT22;1333;50.958;6.770;2023-12-20T09:31:06;8.20;99.90
2647;DHT22;1333;50.958;6.770;2023-12-20T09:33:32;8.10;99.90
2647;DHT22;1333;50.958;6.770;2023-12-20T09:35:58;8.10;99.90
2647;DHT22;1333;50.958;6.770;2023-12-20T09:38:23;8.10;99.90
2647;DHT22;1333;50.958;6.770;2023-12-20T09:40:49;8.20;99.90
2647;DHT22;1333;50.958;6.770;2023-12-20T09:43:15;8.30;99.90
2647;DHT22;1333;50.958;6.770;2023-12-20T09:45:42;8.20;99.90
2647;DHT22;1333;50.958;6.770;2023-12-20T09:48:11;8.30;99.90
2647;DHT22;1333;50.958;6.770;2023-12-20T09:50:37;8.30;99.90
2647;DHT22;1333;50.958;6.770;2023-12-20T09:53:02;8.20;99.90
2647;DHT22;1333;50.958;6.770;2023-12-20T09:55:30;8.20;99.90
2647;DHT22;1333;50.958;6.770;2023-12-20T09:57:57;8.30;99.90
2647;DHT22;1333;50.958;6.770;2023-12-20T10:00:23;8.30;99.90
2647;DHT22;1333;50.958;6.770;2023-12-20T10:02:57;8.30;99.90
2647;DHT22;1333;50.958;6.770;2023-12-20T10:05:35;8.30;99.90
2647;DHT22;1333;50.958;6.770;2023-12-20T10:08:02;8.20;99.90
2647;DHT22;1333;50.958;6.770;2023-12-20T10:10:28;8.20;99.90
2647;DHT22;1333;50.958;6.770;2023-12-20T10:13:10;8.10;99.90
2647;DHT22;1333;50.958;6.770;2023-12-20T10:15:37;8.00;99.90
2647;DHT22;1333;50.958;6.770;2023-12-20T10:18:03;8.00;99.90
2647;DHT22;1333;50.958;6.770;2023-12-20T10:20:30;8.10;99.90
2647;DHT22;1333;50.958;6.770;2023-12-20T10:22:57;8.20;99.90
2647;DHT22;1333;50.958;6.770;2023-12-20T10:25:23;8.30;99.90
2647;DHT22;1333;50.958;6.770;2023-12-20T10:27:50;8.20;99.90
2647;DHT22;1333;50.958;6.770;2023-12-20T10:30:33;8.20;99.90
2647;DHT22;1333;50.958;6.770;2023-12-20T10:32:58;8.20;99.90
2647;DHT22;1333;50.958;6.770;2023-12-20T10:35:24;8.30;99.90
2647;DHT22;1333;50.958;6.770;2023-12-20T10:37:51;8.30;99.90
2647;DHT22;1333;50.958;6.770;2023-12-20T10:40:17;8.30;99.90
2647;DHT22;1333;50.958;6.770;2023-12-20T10:42:43;8.20;99.90
2647;DHT22;1333;50.958;6.770;2023-12-20T10:45:09;8.20;99.90
2647;DHT22;1333;50.958;6.770;2023-12-20T10:47:36;8.30;99.90
2647;DHT22;1333;50.958;6.770;2023-12-20T10:50:05;8.30;99.90
2647;DHT22;1333;50.958;6.770;2023-12-20T10:52:32;8.30;99.90
2647;DHT22;1333;50.958;6.770;2023-12-20T10:54:59;8.50;99.90
2647;DHT22;1333;50.958;6.770;2023-12-20T10:57:26;8.50;99.90
2647;DHT22;1333;50.958;6.770;2023-12-20T10:59:54;8.60;99.90
2647;DHT22;1333;50.958;6.770;2023-12-20T11:02:20;8.70;99.90
2647;DHT22;1333;50.958;6.770;2023-12-20T11:04:51;8.70;99.90
2647;DHT22;1333;50.958;6.770;2023-12-20T11:07:43;8.90;99.90
2647;DHT22;1333;50.958;6.770;2023-12-20T11:10:14;8.90;99.90
2647;DHT22;1333;50.958;6.770;2023-12-20T11:12:53;8.80;99.90
2647;DHT22;1333;50.958;6.770;2023-12-20T11:15:20;8.80;99.90
2647;DHT22;1333;50.958;6.770;2023-12-20T11:17:46;8.80;99.90
2647;DHT22;1333;50.958;6.770;2023-12-20T11:20:11;8.80;99.90
2647;DHT22;1333;50.958;6.770;2023-12-20T11:22:37;8.80;99.90
2647;DHT22;1333;50.958;6.770;2023-12-20T11:25:07;8.80;99.90
2647;DHT22;1333;50.958;6.770;2023-12-20T11:27:37;8.70;99.90
2647;DHT22;1333;50.958;6.770;2023-12-20T11:30:05;8.60;99.90
2647;DHT22;1333;50.958;6.770;2023-12-20T11:32:34;8.50;99.90
2647;DHT22;1333;50.958;6.770;2023-12-20T11:35:01;8.40;99.90
2647;DHT22;1333;50.958;6.770;2023-12-20T11:37:41;8.50;99.90
2647;DHT22;1333;50.958;6.770;2023-12-20T11:40:14;8.70;99.90
2647;DHT22;1333;50.958;6.770;2023-12-20T11:42:44;8.70;99.90
2647;DHT22;1333;50.958;6.770;2023-12-20T11:45:15;8.60;99.90
2647;DHT22;1333;50.958;6.770;2023-12-20T11:47:46;8.60;99.90
2647;DHT22;1333;50.958;6.770;2023-12-20T11:50:12;8.50;99.90
2647;DHT22;1333;50.958;6.770;2023-12-20T11:52:38;8.50;99.90
2647;DHT22;1333;50.958;6.770;2023-12-20T11:55:04;8.50;99.90
2647;DHT22;1333;50.958;6.770;2023-12-20T11:57:30;8.40;99.90
2647;DHT22;1333;50.958;6.770;2023-12-20T11:59:56;8.50;99.90
2647;DHT22;1333;50.958;6.770;2023-12-20T12:02:22;8.40;99.90
2647;DHT22;1333;50.958;6.770;2023-12-20T12:04:49;8.40;99.90
2647;DHT22;1333;50.958;6.770;2023-12-20T12:07:16;8.40;99.90
2647;DHT22;1333;50.958;6.770;2023-12-20T12:09:42;8.30;99.90
2647;DHT22;1333;50.958;6.770;2023-12-20T12:12:08;8.20;99.90
2647;DHT22;1333;50.958;6.770;2023-12-20T12:14:33;8.10;99.90
2647;DHT22;1333;50.958;6.770;2023-12-20T12:17:00;8.00;99.90
2647;DHT22;1333;50.958;6.770;2023-12-20T12:19:26;8.10;99.90
2647;DHT22;1333;50.958;6.770;2023-12-20T12:22:09;8.00;99.90
2647;DHT22;1333;50.958;6.770;2023-12-20T12:24:45;8.00;99.90
2647;DHT22;1333;50.958;6.770;2023-12-20T12:27:12;8.00;99.90
2647;DHT22;1333;50.958;6.770;2023-12-20T12:29:38;8.00;99.90
2647;DHT22;1333;50.958;6.770;2023-12-20T12:32:08;8.10;99.90
2647;DHT22;1333;50.958;6.770;2023-12-20T12:34:37;8.10;99.90
2647;DHT22;1333;50.958;6.770;2023-12-20T12:37:04;8.00;99.90
2647;DHT22;1333;50.958;6.770;2023-12-20T12:39:30;8.10;99.90
2647;DHT22;1333;50.958;6.770;2023-12-20T12:41:56;8.20;99.90
2647;DHT22;1333;50.958;6.770;2023-12-20T12:44:22;8.20;99.90
2647;DHT22;1333;50.958;6.770;2023-12-20T12:46:50;8.40;99.90
2647;DHT22;1333;50.958;6.770;2023-12-20T12:49:16;8.50;99.90
2647;DHT22;1333;50.958;6.770;2023-12-20T12:51:42;8.50;99.90
2647;DHT22;1333;50.958;6.770;2023-12-20T12:54:08;8.40;99.90
2647;DHT22;1333;50.958;6.770;2023-12-20T12:56:35;8.50;99.90
2647;DHT22;1333;50.958;6.770;2023-12-20T12:59:01;8.40;99.90
2647;DHT22;1333;50.958;6.770;2023-12-20T13:01:26;8.40;99.90
2647;DHT22;1333;50.958;6.770;2023-12-20T13:03:52;8.30;99.90
2647;DHT22;1333;50.958;6.770;2023-12-20T13:06:17;8.30;99.90
2647;DHT22;1333;50.958;6.770;2023-12-20T13:08:43;8.30;99.90
2647;DHT22;1333;50.958;6.770;2023-12-20T13:11:09;8.30;99.90
2647;DHT22;1333;50.958;6.770;2023-12-20T13:13:35;8.20;99.90
2647;DHT22;1333;50.958;6.770;2023-12-20T13:16:00;8.30;99.90
2647;DHT22;1333;50.958;6.770;2023-12-20T13:18:26;8.40;99.90
2647;DHT22;1333;50.958;6.770;2023-12-20T13:20:51;8.40;99.90
2647;DHT22;1333;50.958;6.770;2023-12-20T13:23:17;8.40;99.90
2647;DHT22;1333;50.958;6.770;2023-12-20T13:25:46;8.50;99.90
2647;DHT22;1333;50.958;6.770;2023-12-20T13:28:12;8.50;99.90
2647;DHT22;1333;50.958;6.770;2023-12-20T13:30:38;8.40;99.90
2647;DHT22;1333;50.958;6.770;2023-12-20T13:33:04;8.50;99.90
2647;DHT22;1333;50.958;6.770;2023-12-20T13:35:30;8.60;99.90
2647;DHT22;1333;50.958;6.770;2023-12-20T13:37:57;8.70;99.90
2647;DHT22;1333;50.958;6.770;2023-12-20T13:40:23;8.70;99.90
2647;DHT22;1333;50.958;6.770;2023-12-20T13:42:48;8.70;99.90
2647;DHT22;1333;50.958;6.770;2023-12-20T13:45:14;8.70;99.90
2647;DHT22;1333;50.958;6.770;2023-12-20T13:47:40;8.60;99.90
2647;DHT22;1333;50.958;6.770;2023-12-20T13:50:05;8.50;99.90
2647;DHT22;1333;50.958;6.770;2023-12-20T13:52:31;8.60;99.90
2647;DHT22;1333;50.958;6.770;2023-12-20T13:54:56;8.50;99.90
2647;DHT22;1333;50.958;6.770;2023-12-20T13:57:22;8.40;99.90
2647;DHT22;1333;50.958;6.770;2023-12-20T13:59:47;8.40;99.90
2647;DHT22;1333;50.958;6.770;2023-12-20T14:02:13;8.50;99.90
2647;DHT22;1333;50.958;6.770;2023-12-20T14:04:38;8.50;99.90
2647;DHT22;1333;50.958;6.770;2023-12-20T14:07:05;8.40;99.90
2647;DHT22;1333;50.958;6.770;2023-12-20T14:09:30;8.30;99.90
2647;DHT22;1333;50.958;6.770;2023-12-20T14:11:56;8.20;99.90
2647;DHT22;1333;50.958;6.770;2023-12-20T14:14:21;8.20;99.90
2647;DHT22;1333;50.958;6.770;2023-12-20T14:16:47;8.10;99.90
2647;DHT22;1333;50.958;6.770;2023-12-20T14:19:12;8.10;99.90
2647;DHT22;1333;50.958;6.770;2023-12-20T14:21:38;8.20;99.90
2647;DHT22;1333;50.958;6.770;2023-12-20T14:24:04;8.20;99.90
2647;DHT22;1333;50.958;6.770;2023-12-20T14:26:30;8.20;99.90
2647;DHT22;1333;50.958;6.770;2023-12-20T14:28:56;8.20;99.90
2647;DHT22;1333;50.958;6.770;2023-12-20T14:31:22;8.40;99.90
2647;DHT22;1333;50.958;6.770;2023-12-20T14:33:49;8.40;99.90
2647;DHT22;1333;50.958;6.770;2023-12-20T14:36:16;8.50;99.90
2647;DHT22;1333;50.958;6.770;2023-12-20T14:38:43;8.60;99.90
2647;DHT22;1333;50.958;6.770;2023-12-20T14:41:08;8.60;99.90
2647;DHT22;1333;50.958;6.770;2023-12-20T14:43:34;8.60;99.90
2647;DHT22;1333;50.958;6.770;2023-12-20T14:46:00;8.70;99.90
2647;DHT22;1333;50.958;6.770;2023-12-20T14:48:25;8.60;99.90
2647;DHT22;1333;50.958;6.770;2023-12-20T14:50:53;8.70;99.90
2647;DHT22;1333;50.958;6.770;2023-12-20T14:53:19;8.70;99.90
2647;DHT22;1333;50.958;6.770;2023-12-20T14:55:44;8.70;99.90
2647;DHT22;1333;50.958;6.770;2023-12-20T14:58:10;8.70;99.90
2647;DHT22;1333;50.958;6.770;2023-12-20T15:00:36;8.60;99.90
2647;DHT22;1333;50.958;6.770;2023-12-20T15:03:01;8.80;99.90
2647;DHT22;1333;50.958;6.770;2023-12-20T15:05:29;8.60;99.90
2647;DHT22;1333;50.958;6.770;2023-12-20T15:07:54;8.60;99.90
2647;DHT22;1333;50.958;6.770;2023-12-20T15:10:20;8.60;99.90
2647;DHT22;1333;50.958;6.770;2023-12-20T15:12:46;8.60;99.90
2647;DHT22;1333;50.958;6.770;2023-12-20T15:15:11;8.70;99.90
2647;DHT22;1333;50.958;6.770;2023-12-20T15:17:37;8.70;99.90
2647;DHT22;1333;50.958;6.770;2023-12-20T15:20:03;8.60;99.90
2647;DHT22;1333;50.958;6.770;2023-12-20T15:22:30;8.60;99.90
2647;DHT22;1333;50.958;6.770;2023-12-20T15:24:55;8.50;99.90
2647;DHT22;1333;50.958;6.770;2023-12-20T15:27:21;8.50;99.90
2647;DHT22;1333;50.958;6.770;2023-12-20T15:29:47;8.40;99.90
2647;DHT22;1333;50.958;6.770;2023-12-20T15:32:15;8.40;99.90
2647;DHT22;1333;50.958;6.770;2023-12-20T15:34:40;8.40;99.90
2647;DHT22;1333;50.958;6.770;2023-12-20T15:37:06;8.30;99.90
2647;DHT22;1333;50.958;6.770;2023-12-20T15:39:31;8.40;99.90
2647;DHT22;1333;50.958;6.770;2023-12-20T15:41:57;8.30;99.90
2647;DHT22;1333;50.958;6.770;2023-12-20T15:44:22;8.30;99.90
2647;DHT22;1333;50.958;6.770;2023-12-20T15:46:48;8.20;99.90
2647;DHT22;1333;50.958;6.770;2023-12-20T15:49:13;8.20;99.90
2647;DHT22;1333;50.958;6.770;2023-12-20T15:51:41;8.20;99.90
2647;DHT22;1333;50.958;6.770;2023-12-20T15:54:07;8.30;99.90
2647;DHT22;1333;50.958;6.770;2023-12-20T15:56:33;8.20;99.90
2647;DHT22;1333;50.958;6.770;2023-12-20T15:58:59;8.20;99.90
2647;DHT22;1333;50.958;6.770;2023-12-20T16:01:25;8.20;99.90
2647;DHT22;1333;50.958;6.770;2023-12-20T16:03:51;8.20;99.90
2647;DHT22;1333;50.958;6.770;2023-12-20T16:06:16;8.20;99.90
2647;DHT22;1333;50.958;6.770;2023-12-20T16:08:42;8.10;99.90
2647;DHT22;1333;50.958;6.770;2023-12-20T16:11:08;8.20;99.90